• Join FlightAware (Why Join?)
  • Login
  • US Flag 
 
10:08PM EST


 

Airport Tracker/Info


-or-


 

Live Flight TrackerFlight Track Log ✈ EJA922 ✈ 30-Jun-2014 ✈ CYYZ - KMMU

Flight Track Log - Related Links

Times and Time Zones

All times are in EDT time to prevent confusion due to time zone crossing. See the EJA922 flight status page for this flight to view local times or setup timezone preferences in your user account.

Time Position Orientation Groundspeed Altitude Reporting Facility
EDT Latitude Longitude Course Direction KTS MPH feet Rate Location/Type
08:53AM 43.6333 -79.6167 154° Southeast 180 207 2,400  Level Toronto Center
08:54AM 43.5833 -79.5833 154° Southeast 230 265 3,800 1,200 Climbing Toronto Center
08:55AM 43.5500 -79.5000 119° Southeast 280 322 4,900 1,080 Climbing Toronto Center
08:56AM 43.5333 -79.3833 101° East 280 322 6,000 1,800 Climbing Toronto Center
08:57AM 43.5000 -79.2833 115° Southeast 280 322 8,600 2,460 Climbing Toronto Center
08:58AM 43.4833 -79.1667 101° East 300 345 11,000 2,040 Climbing Toronto Center
08:59AM 43.4500 -79.0333 109° East 350 403 12,700 1,920 Climbing Toronto Center
09:00AM 43.4167 -78.9000 109° East 380 437 14,900 1,980 Climbing Toronto Center
09:01AM 43.3594 -78.7889 125° Southeast 389 448 16,900 1,620 Climbing Cleveland Center
09:02AM 43.2978 -78.6572 123° Southeast 406 467 18,400 1,560 Climbing Cleveland Center
09:03AM 43.2522 -78.5061 112° Southeast 423 487 20,200 1,560 Climbing Cleveland Center
09:04AM 43.2061 -78.3564 113° Southeast 428 493 21,700 1,440 Climbing Cleveland Center
09:05AM 43.1500 -78.1717 113° Southeast 433 498 23,200 1,500 Climbing Cleveland Center
09:06AM 43.1014 -78.0153 113° Southeast 443 510 24,900 1,320 Climbing Cleveland Center
09:07AM 43.0519 -77.8578 113° Southeast 447 514 26,000 960 Climbing Cleveland Center
09:08AM 43.0022 -77.6944 113° Southeast 457 526 26,900 480 Climbing Cleveland Center
09:09AM 42.9486 -77.5231 113° Southeast 478 550 27,000  Climbing Cleveland Center
09:10AM 42.8911 -77.3442 114° Southeast 500 575 27,000  Level Cleveland Center
09:11AM 42.8342 -77.1653 113° Southeast 506 582 27,000  Level Cleveland Center
09:12AM 42.7658 -76.9519 114° Southeast 509 586 27,000  Level Cleveland Center
09:13AM 42.7314 -76.8453 114° Southeast 508 585 27,000  Level Boston Center
09:14AM 42.6747 -76.6694 114° Southeast 509 586 27,000  Level Boston Center
09:15AM 42.6097 -76.4992 117° Southeast 509 586 27,000 -120 Level Boston Center
09:16AM 42.5400 -76.3336 120° Southeast 508 585 26,800 -600 Descending Boston Center
09:17AM 42.4744 -76.1769 120° Southeast 508 585 25,800 -1,020 Descending Boston Center
09:18AM 42.4075 -76.0153 119° Southeast 498 573 24,800 -1,020 Descending Boston Center
09:19AM 42.3397 -75.8547 120° Southeast 494 568 23,700 -900 Descending Boston Center
09:20AM 42.2742 -75.6992 120° Southeast 482 555 23,000 -360 Descending Boston Center
09:21AM 42.1936 -75.5150 121° Southeast 477 549 23,000 -540 Level Boston Center
09:22AM 42.1300 -75.3656 120° Southeast 465 535 21,900 -1,380 Descending Boston Center
09:23AM 42.0686 -75.2208 120° Southeast 452 520 20,200 -1,800 Descending Boston Center
09:24AM 41.9997 -75.0644 121° Southeast 452 520 18,300 -1,560 Descending Boston Center
09:25AM 41.9375 -74.9197 120° Southeast 451 519 17,000 -1,920 Descending Boston Center
09:26AM 41.8789 -74.7797 119° Southeast 386 444 14,400 -2,340 Descending Boston Center
09:27AM 41.8092 -74.7069 142° Southeast 317 365 12,400 -1,860 Descending Boston Center
09:28AM 41.7364 -74.6464 148° Southeast 313 360 10,600 -1,860 Descending Boston Center
09:29AM 41.6606 -74.5836 148° Southeast 302 348 8,600 -1,860 Descending Boston Center
09:30AM 41.5828 -74.5822 179° South 283 326 6,900 -1,260 Descending Boston Center
09:31AM 41.5069 -74.5858 182° South 277 319 6,000 -480 Descending Boston Center
09:32AM 41.4275 -74.5906 183° South 270 311 6,000  Level Boston Center
09:33AM 41.3522 -74.5825 175° South 275 316 6,000 -540 Level Boston Center
09:34AM 41.3167 -74.5500 146° Southeast 271 312 5,200 -720 Descending New York TRACON
09:35AM 41.2500 -74.5000 151° Southeast 265 305 4,900 -600 Descending New York TRACON
09:36AM 41.1833 -74.4333 143° Southeast 271 312 4,000 -480 Descending New York TRACON
09:37AM 41.1333 -74.3833 143° Southeast 240 276 4,000 -480 Level New York TRACON
09:38AM 41.0833 -74.3500 153° Southeast 244 281 3,100 -540 Descending New York TRACON
09:39AM 41.0167 -74.3167 159° South 215 247 3,000 -420 Descending New York TRACON
09:40AM 40.9667 -74.2833 153° Southeast 223 257 2,300 -480 Descending New York TRACON
09:41AM 40.9167 -74.3000 194° South 185 213 2,100 -180 Descending New York TRACON
09:42AM 40.8833 -74.3333 217° Southwest 162 186 2,000 -420 Descending New York TRACON
09:43AM 40.8500 -74.3667 217° Southwest 131 151 1,300 -720 Descending New York TRACON
09:45AM 40.7993 -74.4149 184° South  Level Estimated
09:52AM 40.7993 -74.4149 North  Level Estimated